Patton Village, California
Current Conditions -  °F | °C
As of 1:35 PM on Monday 24 Nov 2014 (Local Time) from KRTS Reporting Station
Clear Clear  
Wind Chill: 45°   Ceiling: Unl
Heat Index: 48°   Visibility: 10mi
Dew Point:   Wind: 7mph
Humidity: 20%   Direction: 130°SE
Pressure: 30.42"   Gusts: NA
Location:  40.3266°N, 120.122°W
Report Text: KRTS 242135Z AUTO 13006KT 10SM CLR 09/M13 A3042 RMK AO2
Loading
Personal Weather Stations






























Interactive Weather Map New forecast layout! Learn more

10-Day Weather Forecast

Advertisements
Track Severe Weather on mobile